createdAt,value
2022-10-20T00:02:01.623Z,10.78
2022-10-20T00:04:29.877Z,10.49
2022-10-20T00:06:57.522Z,10.43
2022-10-20T00:09:25.332Z,10.30
2022-10-20T00:11:53.071Z,10.27
2022-10-20T00:14:21.213Z,10.31
2022-10-20T00:16:49.018Z,10.35
2022-10-20T00:19:16.831Z,10.44
2022-10-20T00:21:44.529Z,10.47
2022-10-20T00:24:12.218Z,10.37
2022-10-20T00:26:40.020Z,10.25
2022-10-20T00:29:07.915Z,10.30
2022-10-20T00:31:35.593Z,10.35
2022-10-20T00:34:03.366Z,10.41
2022-10-20T00:36:31.104Z,10.47
2022-10-20T00:39:03.561Z,10.41
2022-10-20T00:41:32.016Z,10.34
2022-10-20T00:44:42.674Z,10.28
2022-10-20T00:47:16.922Z,10.39
2022-10-20T00:49:44.683Z,10.28
2022-10-20T00:52:12.541Z,10.06
2022-10-20T00:54:40.323Z,10.10
2022-10-20T00:57:08.061Z,10.14
2022-10-20T00:59:36.344Z,10.08
2022-10-20T01:02:04.142Z,9.93
2022-10-20T01:04:32.056Z,10.05
2022-10-20T01:06:59.951Z,10.21
2022-10-20T01:09:27.703Z,10.21
2022-10-20T01:12:16.978Z,10.21
2022-10-20T01:15:16.717Z,10.27
2022-10-20T01:18:18.813Z,10.30
2022-10-20T01:21:11.804Z,10.17
2022-10-20T01:24:23.824Z,9.64
2022-10-20T01:27:43.280Z,9.88
2022-10-20T01:30:19.217Z,9.90
2022-10-20T01:33:33.213Z,9.86
2022-10-20T01:36:13.777Z,9.75
2022-10-20T01:38:54.072Z,9.82
2022-10-20T01:41:37.657Z,9.86
2022-10-20T01:44:08.921Z,9.92
2022-10-20T01:46:37.870Z,9.85
2022-10-20T01:49:05.634Z,9.91
2022-10-20T01:51:33.464Z,9.98
2022-10-20T01:54:01.371Z,9.93
2022-10-20T01:57:02.298Z,9.81
2022-10-20T01:59:48.094Z,9.87
2022-10-20T02:02:42.249Z,9.82
2022-10-20T02:05:16.922Z,9.98
2022-10-20T02:07:44.673Z,10.00
2022-10-20T02:10:22.832Z,9.95
2022-10-20T02:12:58.578Z,9.99
2022-10-20T02:15:27.747Z,10.09
2022-10-20T02:18:00.222Z,10.12
2022-10-20T02:20:28.821Z,10.00
2022-10-20T02:22:58.073Z,10.02
2022-10-20T02:25:26.347Z,9.99
2022-10-20T02:27:54.149Z,10.05
2022-10-20T02:30:22.281Z,9.84
2022-10-20T02:32:52.704Z,9.71
2022-10-20T02:35:23.946Z,9.84
2022-10-20T02:37:52.433Z,9.63
2022-10-20T02:40:22.358Z,9.84
2022-10-20T02:42:50.319Z,9.99
2022-10-20T02:45:18.061Z,10.05
2022-10-20T02:47:45.858Z,9.99
2022-10-20T02:50:13.730Z,9.90
2022-10-20T02:52:42.494Z,9.93
2022-10-20T02:55:10.234Z,9.96
2022-10-20T02:57:38.593Z,10.03
2022-10-20T03:00:07.546Z,10.08
2022-10-20T03:02:35.395Z,10.04
2022-10-20T03:05:03.476Z,9.90
2022-10-20T03:07:31.326Z,9.80
2022-10-20T03:09:59.021Z,9.93
2022-10-20T03:12:28.946Z,9.95
2022-10-20T03:14:59.335Z,9.75
2022-10-20T03:17:27.061Z,9.84
2022-10-20T03:19:54.770Z,9.90
2022-10-20T03:22:22.678Z,9.92
2022-10-20T03:24:50.460Z,9.97
2022-10-20T03:27:18.186Z,9.93
2022-10-20T03:29:45.985Z,9.87
2022-10-20T03:32:13.872Z,9.95
2022-10-20T03:34:41.634Z,10.06
2022-10-20T03:37:09.355Z,10.12
2022-10-20T03:39:37.164Z,10.13
2022-10-20T03:42:05.033Z,10.12
2022-10-20T03:44:32.707Z,9.45
2022-10-20T03:47:00.734Z,8.56
2022-10-20T03:49:28.668Z,8.77
2022-10-20T03:51:56.396Z,9.20
2022-10-20T03:54:24.095Z,9.53
2022-10-20T03:56:51.833Z,9.74
2022-10-20T03:59:19.676Z,9.80
2022-10-20T04:01:47.470Z,9.86
2022-10-20T04:04:15.473Z,9.90
2022-10-20T04:06:43.173Z,10.54
2022-10-20T04:09:10.977Z,11.19
2022-10-20T04:11:39.006Z,10.41
2022-10-20T04:14:06.717Z,9.28
2022-10-20T04:16:34.573Z,8.41
2022-10-20T04:19:02.429Z,8.37
2022-10-20T04:21:30.555Z,9.25
2022-10-20T04:23:58.356Z,9.60
2022-10-20T04:26:26.118Z,9.68
2022-10-20T04:28:57.283Z,9.88
2022-10-20T04:31:25.104Z,10.09
2022-10-20T04:33:52.970Z,10.25
2022-10-20T04:36:20.715Z,10.31
2022-10-20T04:38:48.510Z,10.37
2022-10-20T04:41:16.236Z,9.81
2022-10-20T04:43:43.972Z,8.89
2022-10-20T04:46:11.891Z,8.10
2022-10-20T04:48:42.638Z,7.65
2022-10-20T04:51:13.034Z,8.09
2022-10-20T04:53:40.827Z,8.69
2022-10-20T04:56:11.471Z,9.21
2022-10-20T04:58:39.282Z,9.57
2022-10-20T05:01:08.607Z,9.85
2022-10-20T05:03:36.782Z,10.06
2022-10-20T05:06:09.416Z,10.22
2022-10-20T05:08:37.148Z,10.22
2022-10-20T05:11:05.206Z,10.15
2022-10-20T05:13:32.953Z,10.25
2022-10-20T05:16:00.650Z,10.35
2022-10-20T05:18:28.628Z,10.14
2022-10-20T05:21:08.173Z,9.28
2022-10-20T05:23:38.449Z,8.33
2022-10-20T05:26:10.709Z,8.10
2022-10-20T05:28:39.088Z,8.68
2022-10-20T05:31:07.939Z,9.07
2022-10-20T05:33:36.151Z,9.24
2022-10-20T05:36:10.118Z,9.46
2022-10-20T05:38:38.338Z,9.68
2022-10-20T05:41:14.036Z,9.86
2022-10-20T05:43:41.847Z,9.95
2022-10-20T05:46:09.815Z,9.99
2022-10-20T05:48:42.816Z,10.11
2022-10-20T05:51:19.838Z,9.87
2022-10-20T05:53:47.712Z,8.90
2022-10-20T05:56:18.474Z,8.13
2022-10-20T05:58:47.473Z,7.93
2022-10-20T06:01:26.795Z,8.87
2022-10-20T06:03:59.276Z,9.66
2022-10-20T06:06:29.255Z,9.97
2022-10-20T06:08:58.891Z,10.16
2022-10-20T06:11:27.196Z,10.24
2022-10-20T06:13:55.894Z,10.26
2022-10-20T06:16:25.236Z,10.36
2022-10-20T06:18:53.586Z,9.65
2022-10-20T06:21:26.725Z,8.78
2022-10-20T06:23:54.584Z,8.13
2022-10-20T06:26:24.253Z,8.24
2022-10-20T06:28:56.001Z,9.21
2022-10-20T06:31:31.211Z,10.11
2022-10-20T06:33:59.072Z,10.82
2022-10-20T06:36:27.339Z,11.18
2022-10-20T06:38:58.687Z,10.68
2022-10-20T06:41:28.122Z,10.05
2022-10-20T06:43:59.247Z,9.91
2022-10-20T06:46:29.400Z,10.15
2022-10-20T06:48:59.667Z,11.45
2022-10-20T06:51:27.556Z,12.23
2022-10-20T06:53:55.606Z,11.62
2022-10-20T06:56:25.112Z,10.81
2022-10-20T06:58:54.129Z,10.22
2022-10-20T07:01:27.168Z,10.11
2022-10-20T07:04:01.142Z,10.57
2022-10-20T07:06:35.104Z,11.05
2022-10-20T07:09:04.489Z,10.98
2022-10-20T07:11:32.382Z,10.76
2022-10-20T07:14:00.871Z,10.68
2022-10-20T07:16:30.768Z,11.33
2022-10-20T07:18:58.855Z,12.29
2022-10-20T07:21:32.361Z,12.28
2022-10-20T07:24:05.270Z,11.66
2022-10-20T07:26:38.783Z,11.07
2022-10-20T07:29:06.564Z,10.55
2022-10-20T07:31:37.541Z,10.22
2022-10-20T07:34:12.897Z,9.91
2022-10-20T07:36:43.400Z,9.92
2022-10-20T07:39:12.722Z,10.64
2022-10-20T07:41:40.588Z,11.21
2022-10-20T07:44:08.392Z,10.99
2022-10-20T07:46:36.540Z,10.53
2022-10-20T07:49:38.120Z,10.10
2022-10-20T07:51:52.340Z,9.66
2022-10-20T07:54:20.158Z,9.43
2022-10-20T07:56:48.037Z,9.41
2022-10-20T07:59:15.841Z,10.07
2022-10-20T08:01:44.310Z,11.02
2022-10-20T08:04:12.436Z,11.49
2022-10-20T08:06:40.264Z,11.19
2022-10-20T08:09:08.534Z,10.53
2022-10-20T08:11:36.363Z,10.14
2022-10-20T08:14:04.297Z,10.09
2022-10-20T08:16:43.846Z,10.05
2022-10-20T08:19:28.051Z,9.86
2022-10-20T08:21:55.776Z,9.63
2022-10-20T08:24:23.636Z,9.51
2022-10-20T08:26:51.356Z,9.92
2022-10-20T08:29:19.097Z,11.33
2022-10-20T08:31:46.824Z,12.47
2022-10-20T08:34:14.617Z,12.58
2022-10-20T08:36:42.384Z,11.80
2022-10-20T08:39:10.297Z,11.04
2022-10-20T08:42:06.433Z,10.45
2022-10-20T08:44:33.230Z,9.99
2022-10-20T08:47:02.166Z,9.77
2022-10-20T08:49:33.432Z,9.60
2022-10-20T08:52:01.245Z,9.42
2022-10-20T08:54:29.394Z,9.37
2022-10-20T08:56:57.229Z,9.34
2022-10-20T08:59:39.101Z,9.15
2022-10-20T09:02:15.472Z,8.94
2022-10-20T09:04:51.124Z,8.68
2022-10-20T09:07:42.293Z,8.60
2022-10-20T09:10:16.128Z,8.81
2022-10-20T09:12:45.979Z,9.97
2022-10-20T09:15:15.886Z,11.19
2022-10-20T09:17:47.132Z,11.17
2022-10-20T09:20:44.531Z,10.74
2022-10-20T09:23:35.314Z,10.40
2022-10-20T09:26:03.359Z,10.31
2022-10-20T09:28:38.399Z,10.31
2022-10-20T09:31:34.408Z,10.16
2022-10-20T09:34:02.357Z,9.78
2022-10-20T09:36:35.066Z,9.55
2022-10-20T09:39:02.873Z,9.42
2022-10-20T09:41:31.545Z,9.39
2022-10-20T09:44:02.721Z,9.33
2022-10-20T09:46:34.581Z,9.40
2022-10-20T09:49:02.388Z,9.45
2022-10-20T09:51:30.230Z,9.36
2022-10-20T09:54:03.660Z,9.18
2022-10-20T09:56:36.243Z,9.13
2022-10-20T09:59:18.440Z,9.16
2022-10-20T10:02:03.511Z,9.23
2022-10-20T10:04:39.533Z,9.31
2022-10-20T10:07:27.589Z,9.44
2022-10-20T10:10:08.454Z,9.59
2022-10-20T10:12:36.883Z,9.73
2022-10-20T10:15:25.268Z,9.74
2022-10-20T10:17:53.130Z,9.76
2022-10-20T10:20:31.204Z,9.78
2022-10-20T10:23:23.683Z,9.79
2022-10-20T10:25:52.465Z,9.87
2022-10-20T10:31:16.665Z,9.91
2022-10-20T10:33:44.529Z,9.99
2022-10-20T10:36:21.372Z,10.12
2022-10-20T10:38:49.163Z,10.23
2022-10-20T10:41:25.330Z,10.15
2022-10-20T10:44:00.646Z,10.01
2022-10-20T10:46:41.380Z,9.91
2022-10-20T10:49:31.730Z,9.84
2022-10-20T10:52:34.008Z,9.90
2022-10-20T10:55:43.785Z,9.95
2022-10-20T10:58:19.207Z,10.07
2022-10-20T11:00:56.593Z,10.18
2022-10-20T11:03:46.938Z,10.19
2022-10-20T11:06:32.924Z,10.13
2022-10-20T11:09:06.135Z,10.09
2022-10-20T11:12:08.325Z,10.09
2022-10-20T11:14:47.147Z,10.07
2022-10-20T11:17:52.697Z,10.02
2022-10-20T11:20:31.314Z,9.96
2022-10-20T11:23:18.945Z,9.94
2022-10-20T11:25:59.779Z,9.99
2022-10-20T11:28:34.977Z,10.05
2022-10-20T11:31:02.763Z,10.04
2022-10-20T11:33:43.923Z,9.97
2022-10-20T11:36:19.375Z,9.92
2022-10-20T11:38:52.699Z,9.95
2022-10-20T11:41:49.646Z,9.98
2022-10-20T11:44:42.631Z,10.04
2022-10-20T11:47:13.876Z,10.14
2022-10-20T11:49:41.668Z,10.25
2022-10-20T11:52:40.445Z,10.32
2022-10-20T11:55:32.361Z,10.28
2022-10-20T11:58:20.806Z,10.17
2022-10-20T12:00:57.605Z,10.14
2022-10-20T12:03:46.033Z,10.12
2022-10-20T12:07:09.407Z,10.13
2022-10-20T12:10:12.591Z,10.05
2022-10-20T12:12:57.561Z,10.01
2022-10-20T12:15:27.945Z,10.02
2022-10-20T12:17:59.945Z,10.08
2022-10-20T12:20:27.715Z,10.06
2022-10-20T12:22:59.134Z,9.98
2022-10-20T12:25:27.127Z,9.92
2022-10-20T12:28:20.285Z,9.90
2022-10-20T12:30:59.382Z,9.91
2022-10-20T12:33:41.515Z,9.93
2022-10-20T12:36:18.602Z,9.95
2022-10-20T12:38:54.263Z,9.94
2022-10-20T12:41:27.256Z,9.96
2022-10-20T12:43:58.649Z,9.94
2022-10-20T12:46:28.096Z,9.96
2022-10-20T12:49:00.334Z,9.97
2022-10-20T12:51:46.703Z,9.91
2022-10-20T12:54:32.128Z,9.95
2022-10-20T12:57:03.988Z,10.01
2022-10-20T12:59:38.313Z,10.08
2022-10-20T13:02:09.085Z,10.07
2022-10-20T13:05:00.607Z,10.07
2022-10-20T13:07:46.588Z,10.07
2022-10-20T13:10:27.372Z,10.09
2022-10-20T13:13:01.283Z,10.05
2022-10-20T13:15:31.172Z,10.06
2022-10-20T13:18:01.612Z,10.03
2022-10-20T13:20:48.865Z,9.95
2022-10-20T13:23:29.491Z,9.90
2022-10-20T13:26:14.436Z,9.92
2022-10-20T13:28:47.981Z,9.91
2022-10-20T13:31:52.036Z,9.91
2022-10-20T13:34:44.874Z,9.93
2022-10-20T13:37:52.942Z,9.96
2022-10-20T13:40:30.967Z,9.93
2022-10-20T13:43:20.631Z,9.90
2022-10-20T13:45:57.997Z,9.83
2022-10-20T13:48:41.998Z,9.67
2022-10-20T13:51:25.608Z,9.54
2022-10-20T13:53:56.452Z,9.49
2022-10-20T13:56:35.662Z,9.40
2022-10-20T13:59:24.623Z,9.28
2022-10-20T14:02:03.866Z,9.24
2022-10-20T14:04:34.085Z,9.23
2022-10-20T14:07:04.274Z,9.22
2022-10-20T14:09:32.086Z,9.20
2022-10-20T14:12:05.910Z,9.13
2022-10-20T14:14:34.108Z,9.09
2022-10-20T14:17:05.182Z,9.04
2022-10-20T14:19:33.693Z,8.98
2022-10-20T14:22:16.230Z,8.90
2022-10-20T14:24:46.188Z,8.80
2022-10-20T14:27:36.294Z,8.65
2022-10-20T14:30:05.969Z,8.50
2022-10-20T14:32:39.607Z,8.38
2022-10-20T14:35:41.368Z,8.28
2022-10-20T14:38:21.496Z,8.17
2022-10-20T14:40:57.234Z,8.06
2022-10-20T14:43:46.303Z,7.95
2022-10-20T14:46:37.685Z,7.84
2022-10-20T14:49:37.927Z,7.73
2022-10-20T14:52:21.513Z,7.61
2022-10-20T14:54:51.146Z,7.50
2022-10-20T14:57:25.053Z,7.40
2022-10-20T15:00:04.507Z,7.31
2022-10-20T15:02:41.567Z,7.22
2022-10-20T15:05:34.211Z,7.09
2022-10-20T15:08:24.372Z,6.97
2022-10-20T15:10:52.455Z,6.85
2022-10-20T15:13:29.009Z,6.74
2022-10-20T15:15:58.768Z,6.63
2022-10-20T15:18:27.094Z,6.51
2022-10-20T15:20:55.347Z,6.39
2022-10-20T15:23:26.032Z,6.26
2022-10-20T15:26:13.610Z,6.12
2022-10-20T15:28:45.752Z,5.98
2022-10-20T15:31:13.548Z,5.90
2022-10-20T15:33:41.719Z,5.81
2022-10-20T15:36:20.434Z,5.74
2022-10-20T15:38:49.283Z,5.66
2022-10-20T15:41:19.980Z,5.60
2022-10-20T15:43:47.909Z,5.60
2022-10-20T15:46:16.352Z,6.71
2022-10-20T15:48:44.247Z,7.88
2022-10-20T15:51:27.556Z,8.81
2022-10-20T15:53:55.618Z,9.68
2022-10-20T15:56:23.506Z,10.24
2022-10-20T15:58:51.481Z,10.54
2022-10-20T16:01:20.381Z,10.44
2022-10-20T16:03:49.728Z,9.51
2022-10-20T16:06:18.497Z,8.55
2022-10-20T16:08:48.331Z,7.84
2022-10-20T16:11:17.334Z,7.30
2022-10-20T16:13:45.406Z,6.87
2022-10-20T16:16:16.256Z,6.51
2022-10-20T16:18:44.033Z,6.18
2022-10-20T16:21:11.915Z,5.88
2022-10-20T16:23:42.321Z,5.61
2022-10-20T16:26:13.635Z,5.35
2022-10-20T16:28:41.547Z,5.31
2022-10-20T16:31:14.374Z,6.51
2022-10-20T16:33:42.311Z,7.57
2022-10-20T16:36:11.766Z,8.40
2022-10-20T16:38:40.461Z,9.22
2022-10-20T16:41:11.455Z,9.96
2022-10-20T16:43:40.870Z,10.45
2022-10-20T16:46:09.211Z,10.80
2022-10-20T16:48:39.004Z,10.26
2022-10-20T16:51:10.052Z,9.02
2022-10-20T16:53:38.035Z,8.03
2022-10-20T16:56:06.661Z,7.29
2022-10-20T16:58:34.675Z,6.70
2022-10-20T17:01:08.897Z,6.19
2022-10-20T17:03:37.934Z,5.72
2022-10-20T17:06:07.129Z,5.37
2022-10-20T17:08:36.073Z,5.05
2022-10-20T17:11:06.758Z,4.74
2022-10-20T17:13:35.485Z,4.47
2022-10-20T17:16:12.412Z,4.31
2022-10-20T17:18:40.413Z,5.23
2022-10-20T17:21:10.231Z,6.40
2022-10-20T17:23:42.506Z,7.05
2022-10-20T17:26:16.843Z,7.35
2022-10-20T17:28:44.753Z,7.59
2022-10-20T17:31:14.370Z,7.79
2022-10-20T17:33:42.733Z,7.96
2022-10-20T17:36:12.502Z,7.85
2022-10-20T17:38:41.738Z,6.92
2022-10-20T17:41:14.944Z,6.00
2022-10-20T17:43:43.059Z,5.31
2022-10-20T17:46:13.574Z,4.82
2022-10-20T17:48:44.062Z,4.41
2022-10-20T17:51:15.675Z,4.06
2022-10-20T17:53:48.187Z,3.82
2022-10-20T17:56:17.243Z,4.68
2022-10-20T17:58:46.861Z,5.80
2022-10-20T18:01:48.527Z,6.43
2022-10-20T18:04:17.030Z,6.84
2022-10-20T18:06:45.621Z,7.11
2022-10-20T18:09:16.768Z,7.32
2022-10-20T18:11:48.235Z,7.56
2022-10-20T18:14:17.180Z,7.65
2022-10-20T18:16:45.469Z,7.68
2022-10-20T18:19:16.308Z,7.09
2022-10-20T18:21:44.185Z,6.06
2022-10-20T18:24:13.606Z,5.19
2022-10-20T18:26:41.947Z,4.54
2022-10-20T18:29:10.531Z,4.04
2022-10-20T18:31:40.138Z,3.61
2022-10-20T18:34:11.137Z,3.25
2022-10-20T18:36:42.071Z,3.82
2022-10-20T18:39:14.061Z,5.38
2022-10-20T18:41:43.261Z,6.11
2022-10-20T18:44:14.235Z,6.33
2022-10-20T18:46:42.526Z,6.48
2022-10-20T18:49:13.012Z,6.63
2022-10-20T18:51:41.069Z,6.78
2022-10-20T18:54:09.139Z,6.51
2022-10-20T18:56:37.082Z,5.57
2022-10-20T18:59:08.019Z,4.77
2022-10-20T19:01:38.194Z,4.16
2022-10-20T19:04:06.901Z,3.64
2022-10-20T19:06:37.521Z,3.25
2022-10-20T19:09:08.526Z,2.94
2022-10-20T19:11:37.860Z,3.40
2022-10-20T19:14:06.937Z,4.67
2022-10-20T19:16:36.784Z,5.41
2022-10-20T19:19:06.196Z,5.72
2022-10-20T19:21:34.258Z,5.95
2022-10-20T19:24:17.134Z,6.19
2022-10-20T19:26:57.465Z,6.38
2022-10-20T19:29:35.839Z,6.60
2022-10-20T19:32:04.665Z,6.17
2022-10-20T19:34:38.254Z,5.20
2022-10-20T19:37:06.772Z,4.40
2022-10-20T19:39:37.884Z,3.77
2022-10-20T19:42:06.302Z,3.26
2022-10-20T19:44:34.238Z,2.85
2022-10-20T19:47:02.138Z,2.48
2022-10-20T19:49:30.079Z,2.32
2022-10-20T19:51:57.871Z,3.31
2022-10-20T19:54:25.769Z,4.34
2022-10-20T19:56:53.808Z,4.95
2022-10-20T19:59:21.702Z,5.31
2022-10-20T20:01:50.041Z,5.58
2022-10-20T20:04:18.509Z,5.82
2022-10-20T20:06:46.341Z,6.05
2022-10-20T20:09:15.905Z,6.24
2022-10-20T20:11:44.163Z,6.00
2022-10-20T20:14:18.783Z,5.05
2022-10-20T20:16:47.347Z,4.16
2022-10-20T20:19:16.681Z,3.53
2022-10-20T20:21:44.721Z,3.03
2022-10-20T20:24:12.961Z,2.60
2022-10-20T20:26:40.876Z,2.25
2022-10-20T20:29:09.705Z,1.95
2022-10-20T20:31:37.455Z,1.69
2022-10-20T20:34:05.288Z,1.50
2022-10-20T20:36:33.080Z,1.73
2022-10-20T20:39:01.319Z,3.02
2022-10-20T20:41:31.263Z,3.93
2022-10-20T20:44:00.986Z,4.74
2022-10-20T20:46:31.182Z,5.37
2022-10-20T20:49:01.184Z,5.53
2022-10-20T20:51:29.166Z,5.72
2022-10-20T20:53:57.075Z,5.93
2022-10-20T20:56:27.017Z,5.64
2022-10-20T20:58:55.648Z,4.68
2022-10-20T21:01:27.630Z,3.83
2022-10-20T21:03:57.687Z,3.17
2022-10-20T21:06:33.219Z,2.69
2022-10-20T21:09:07.796Z,2.30
2022-10-20T21:11:35.849Z,1.97
2022-10-20T21:14:04.019Z,1.65
2022-10-20T21:16:34.199Z,1.40
2022-10-20T21:19:10.829Z,2.10
2022-10-20T21:21:44.578Z,3.65
2022-10-20T21:24:12.904Z,4.70
2022-10-20T21:26:40.761Z,5.32
2022-10-20T21:29:08.574Z,5.54
2022-10-20T21:31:36.596Z,5.70
2022-10-20T21:34:04.980Z,5.64
2022-10-20T21:36:34.862Z,4.78
2022-10-20T21:39:05.451Z,3.85
2022-10-20T21:41:35.107Z,3.17
2022-10-20T21:44:04.447Z,2.67
2022-10-20T21:46:42.062Z,2.29
2022-10-20T21:49:12.454Z,1.95
2022-10-20T21:51:49.983Z,1.65
2022-10-20T21:54:28.593Z,1.45
2022-10-20T21:56:56.648Z,2.47
2022-10-20T21:59:29.221Z,3.76
2022-10-20T22:01:59.503Z,4.43
2022-10-20T22:04:28.648Z,4.70
2022-10-20T22:06:56.773Z,4.91
2022-10-20T22:09:24.665Z,5.12
2022-10-20T22:11:56.852Z,5.29
2022-10-20T22:14:24.621Z,5.44
2022-10-20T22:16:52.446Z,5.62
2022-10-20T22:19:21.922Z,5.63
2022-10-20T22:21:50.914Z,4.84
2022-10-20T22:24:19.232Z,3.91
2022-10-20T22:26:48.356Z,3.17
2022-10-20T22:29:16.937Z,2.62
2022-10-20T22:31:44.713Z,2.18
2022-10-20T22:34:12.881Z,1.80
2022-10-20T22:36:40.937Z,1.84
2022-10-20T22:39:08.982Z,3.01
2022-10-20T22:41:36.830Z,3.98
2022-10-20T22:44:05.596Z,4.46
2022-10-20T22:46:33.638Z,4.70
2022-10-20T22:49:01.450Z,4.98
2022-10-20T22:51:29.269Z,4.73
2022-10-20T22:53:57.459Z,3.82
2022-10-20T22:56:25.550Z,3.01
2022-10-20T22:58:54.823Z,2.41
2022-10-20T23:01:23.109Z,1.94
2022-10-20T23:03:51.710Z,1.58
2022-10-20T23:06:22.889Z,1.30
2022-10-20T23:08:53.013Z,1.06
2022-10-20T23:11:21.017Z,0.86
2022-10-20T23:13:50.041Z,0.70
2022-10-20T23:16:18.071Z,0.82
2022-10-20T23:18:45.948Z,1.92
2022-10-20T23:21:14.176Z,3.00
2022-10-20T23:23:42.124Z,3.68
2022-10-20T23:26:10.607Z,4.12
2022-10-20T23:28:38.577Z,4.44
2022-10-20T23:31:13.690Z,4.86
2022-10-20T23:33:42.371Z,5.14
2022-10-20T23:36:11.051Z,4.73
2022-10-20T23:38:38.864Z,3.76
2022-10-20T23:41:06.915Z,2.97
2022-10-20T23:46:07.449Z,1.83
2022-10-20T23:48:35.627Z,1.42
2022-10-20T23:51:03.839Z,1.11
2022-10-20T23:53:31.602Z,0.85
2022-10-20T23:55:59.457Z,0.64
2022-10-20T23:58:27.287Z,0.45
